createdAt,value
2017-12-26T00:01:33.471Z,18.30
2017-12-26T00:04:01.556Z,19.50
2017-12-26T00:06:29.930Z,15.77
2017-12-26T00:08:58.274Z,15.60
2017-12-26T00:11:26.615Z,12.80
2017-12-26T00:13:55.672Z,13.40
2017-12-26T00:16:23.341Z,14.70
2017-12-26T00:18:51.693Z,16.37
2017-12-26T00:21:20.040Z,14.23
2017-12-26T00:23:48.397Z,15.20
2017-12-26T00:26:19.078Z,12.27
2017-12-26T00:28:46.637Z,14.63
2017-12-26T00:31:15.032Z,11.60
2017-12-26T00:33:43.520Z,14.70
2017-12-26T00:36:11.880Z,11.97
2017-12-26T00:38:40.180Z,13.83
2017-12-26T00:41:08.574Z,13.13
2017-12-26T00:43:36.879Z,14.10
2017-12-26T00:46:05.218Z,12.47
2017-12-26T00:48:33.564Z,11.70
2017-12-26T00:51:01.905Z,13.27
2017-12-26T00:53:30.224Z,11.57
2017-12-26T00:55:58.629Z,12.33
2017-12-26T00:58:26.963Z,10.87
2017-12-26T01:00:55.385Z,13.27
2017-12-26T01:03:23.703Z,12.93
2017-12-26T01:05:52.036Z,13.27
2017-12-26T01:08:20.031Z,12.50
2017-12-26T01:10:47.677Z,15.30
2017-12-26T01:13:16.021Z,12.70
2017-12-26T01:15:44.547Z,13.77
2017-12-26T01:18:12.559Z,15.80
2017-12-26T01:20:40.944Z,15.30
2017-12-26T01:23:09.361Z,13.20
2017-12-26T01:25:36.948Z,14.43
2017-12-26T01:28:04.935Z,12.30
2017-12-26T01:30:34.087Z,13.63
2017-12-26T01:33:02.776Z,11.20
2017-12-26T01:35:31.172Z,14.43
2017-12-26T01:37:59.512Z,14.00
2017-12-26T01:40:27.846Z,14.33
2017-12-26T01:42:55.419Z,13.43
2017-12-26T01:45:23.354Z,12.77
2017-12-26T01:47:51.822Z,11.53
2017-12-26T01:50:20.248Z,13.53
2017-12-26T01:52:48.616Z,12.17
2017-12-26T01:55:17.673Z,9.97
2017-12-26T01:57:45.379Z,11.13
2017-12-26T02:00:13.703Z,10.00
2017-12-26T02:02:42.132Z,9.37
2017-12-26T02:05:11.374Z,9.90
2017-12-26T02:07:38.970Z,14.10
2017-12-26T02:10:07.270Z,11.63
2017-12-26T02:12:35.591Z,12.77
2017-12-26T02:15:03.890Z,12.47
2017-12-26T02:17:32.227Z,14.83
2017-12-26T02:20:00.641Z,11.27
2017-12-26T02:22:28.972Z,12.60
2017-12-26T02:24:58.205Z,13.73
2017-12-26T02:27:26.777Z,13.97
2017-12-26T02:29:55.278Z,11.43
2017-12-26T02:32:22.831Z,13.20
2017-12-26T02:34:51.538Z,10.90
2017-12-26T02:37:19.085Z,12.47
2017-12-26T02:39:47.423Z,12.77
2017-12-26T02:42:15.760Z,12.87
2017-12-26T02:44:44.243Z,10.10
2017-12-26T02:47:12.562Z,11.83
2017-12-26T02:49:40.893Z,12.80
2017-12-26T02:52:09.225Z,12.70
2017-12-26T02:54:37.551Z,12.20
2017-12-26T02:57:05.919Z,11.57
2017-12-26T02:59:34.253Z,12.53
2017-12-26T03:02:02.568Z,11.70
2017-12-26T03:04:30.887Z,15.23
2017-12-26T03:06:59.199Z,12.97
2017-12-26T03:09:27.532Z,15.43
2017-12-26T03:11:56.606Z,17.63
2017-12-26T03:14:24.182Z,11.10
2017-12-26T03:16:52.498Z,12.00
2017-12-26T03:19:20.832Z,14.77
2017-12-26T03:21:49.135Z,15.63
2017-12-26T03:24:17.531Z,9.63
2017-12-26T03:26:45.835Z,12.70
2017-12-26T03:29:14.190Z,12.60
2017-12-26T03:31:42.514Z,11.87
2017-12-26T03:34:10.942Z,13.57
2017-12-26T03:36:39.250Z,10.73
2017-12-26T03:39:07.700Z,10.23
2017-12-26T03:41:36.030Z,16.77
2017-12-26T03:44:04.364Z,10.53
2017-12-26T03:46:32.675Z,10.77
2017-12-26T03:49:01.743Z,12.27
2017-12-26T03:51:29.401Z,11.97
2017-12-26T03:53:57.733Z,11.60
2017-12-26T03:56:26.044Z,9.80
2017-12-26T03:58:54.349Z,11.00
2017-12-26T04:01:22.802Z,11.10
2017-12-26T04:03:51.112Z,10.30
2017-12-26T04:06:19.558Z,10.20
2017-12-26T04:08:47.866Z,10.63
2017-12-26T04:11:16.202Z,10.80
2017-12-26T04:13:44.506Z,10.13
2017-12-26T04:16:12.868Z,8.17
2017-12-26T04:18:41.181Z,9.30
2017-12-26T04:21:09.522Z,9.67
2017-12-26T04:23:37.835Z,7.97
2017-12-26T04:26:06.914Z,10.17
2017-12-26T04:28:34.467Z,13.37
2017-12-26T04:31:02.798Z,9.03
2017-12-26T04:33:31.134Z,10.50
2017-12-26T04:35:59.465Z,11.70
2017-12-26T04:38:27.778Z,7.47
2017-12-26T04:40:56.106Z,8.47
2017-12-26T04:43:24.435Z,9.20
2017-12-26T04:45:51.993Z,10.43
2017-12-26T04:48:19.931Z,9.30
2017-12-26T04:50:48.271Z,11.00
2017-12-26T04:53:16.574Z,8.10
2017-12-26T04:55:44.904Z,8.50
2017-12-26T04:58:13.212Z,8.23
2017-12-26T05:00:41.551Z,11.13
2017-12-26T05:03:09.872Z,11.20
2017-12-26T05:05:38.199Z,7.20
2017-12-26T05:08:06.509Z,8.37
2017-12-26T05:10:34.844Z,9.53
2017-12-26T05:13:03.179Z,9.27
2017-12-26T05:15:31.521Z,8.60
2017-12-26T05:17:59.840Z,15.37
2017-12-26T05:20:28.158Z,8.97
2017-12-26T05:22:56.490Z,10.73
2017-12-26T05:25:24.803Z,8.80
2017-12-26T05:27:53.188Z,8.57
2017-12-26T05:30:21.567Z,8.60
2017-12-26T05:32:49.895Z,12.43
2017-12-26T05:35:18.285Z,8.67
2017-12-26T05:37:46.619Z,8.83
2017-12-26T05:40:15.027Z,8.30
2017-12-26T05:42:43.458Z,7.40
2017-12-26T05:45:11.780Z,9.40
2017-12-26T05:47:40.127Z,7.43
2017-12-26T05:50:08.426Z,8.33
2017-12-26T05:52:36.756Z,9.00
2017-12-26T05:55:05.066Z,7.27
2017-12-26T05:57:33.391Z,7.67
2017-12-26T06:00:01.718Z,8.97
2017-12-26T06:02:30.043Z,9.50
2017-12-26T06:04:58.366Z,8.27
2017-12-26T06:07:26.689Z,6.97
2017-12-26T06:09:55.740Z,8.10
2017-12-26T06:12:23.296Z,9.13
2017-12-26T06:14:51.676Z,7.77
2017-12-26T06:17:20.096Z,9.33
2017-12-26T06:19:48.433Z,7.80
2017-12-26T06:22:16.756Z,9.70
2017-12-26T06:24:45.190Z,8.77
2017-12-26T06:27:13.540Z,9.87
2017-12-26T06:29:41.852Z,10.07
2017-12-26T06:32:10.181Z,8.97
2017-12-26T06:34:38.603Z,8.50
2017-12-26T06:37:06.993Z,7.03
2017-12-26T06:39:35.274Z,7.07
2017-12-26T06:42:03.578Z,7.73
2017-12-26T06:44:32.011Z,5.57
2017-12-26T06:47:00.317Z,7.30
2017-12-26T06:49:28.643Z,8.77
2017-12-26T06:51:56.970Z,10.00
2017-12-26T06:54:25.299Z,7.20
2017-12-26T06:56:53.617Z,8.10
2017-12-26T06:59:21.947Z,5.60
2017-12-26T07:01:50.360Z,6.53
2017-12-26T07:04:18.907Z,9.17
2017-12-26T07:06:46.846Z,8.93
2017-12-26T07:09:15.167Z,8.67
2017-12-26T07:11:42.711Z,8.90
2017-12-26T07:14:10.670Z,12.20
2017-12-26T07:16:38.980Z,10.33
2017-12-26T07:19:07.313Z,7.33
2017-12-26T07:21:41.438Z,7.20
2017-12-26T07:24:09.454Z,8.90
2017-12-26T07:26:37.763Z,10.37
2017-12-26T07:29:06.092Z,6.37
2017-12-26T07:31:34.487Z,10.10
2017-12-26T07:34:02.811Z,8.23
2017-12-26T07:36:31.127Z,9.73
2017-12-26T07:38:58.684Z,9.60
2017-12-26T07:41:26.694Z,10.53
2017-12-26T07:43:55.035Z,10.30
2017-12-26T07:46:23.337Z,10.27
2017-12-26T07:48:51.664Z,9.70
2017-12-26T07:51:19.966Z,8.63
2017-12-26T07:53:48.306Z,7.50
2017-12-26T07:56:16.607Z,9.40
2017-12-26T07:58:44.930Z,7.87
2017-12-26T08:01:13.228Z,8.17
2017-12-26T08:03:41.670Z,9.03
2017-12-26T08:06:09.986Z,11.03
2017-12-26T08:08:39.284Z,9.37
2017-12-26T08:11:06.859Z,9.90
2017-12-26T08:13:34.816Z,10.13
2017-12-26T08:16:02.394Z,8.20
2017-12-26T08:18:30.334Z,11.27
2017-12-26T08:20:59.405Z,10.20
2017-12-26T08:23:26.961Z,9.20
2017-12-26T08:25:55.304Z,9.97
2017-12-26T08:28:23.739Z,11.60
2017-12-26T08:30:52.076Z,10.60
2017-12-26T08:33:20.385Z,9.73
2017-12-26T08:35:48.716Z,11.93
2017-12-26T08:38:17.027Z,11.87
2017-12-26T08:40:45.376Z,12.47
2017-12-26T08:43:13.698Z,14.17
2017-12-26T08:45:42.060Z,13.50
2017-12-26T08:48:10.367Z,10.23
2017-12-26T08:50:38.716Z,10.57
2017-12-26T08:53:07.023Z,12.80
2017-12-26T08:55:35.357Z,9.90
2017-12-26T08:58:03.670Z,15.23
2017-12-26T09:00:32.001Z,11.60
2017-12-26T09:03:00.303Z,8.80
2017-12-26T09:05:28.681Z,9.70
2017-12-26T09:07:57.060Z,8.80
2017-12-26T09:10:25.379Z,7.80
2017-12-26T09:12:54.868Z,9.03
2017-12-26T09:15:22.434Z,10.90
2017-12-26T09:17:50.472Z,9.57
2017-12-26T09:20:18.804Z,11.10
2017-12-26T09:22:47.127Z,12.50
2017-12-26T09:25:15.844Z,9.80
2017-12-26T09:27:43.801Z,11.60
2017-12-26T09:30:12.111Z,9.57
2017-12-26T09:32:40.538Z,16.60
2017-12-26T09:35:08.821Z,11.30
2017-12-26T09:37:37.694Z,10.23
2017-12-26T09:40:05.606Z,8.87
2017-12-26T09:42:33.893Z,9.03
2017-12-26T09:45:02.186Z,12.13
2017-12-26T09:47:30.512Z,9.43
2017-12-26T09:49:59.508Z,9.30
2017-12-26T09:52:27.682Z,12.50
2017-12-26T09:54:55.603Z,11.10
2017-12-26T09:57:24.217Z,11.07
2017-12-26T09:59:52.514Z,10.60
2017-12-26T10:02:20.058Z,12.73
2017-12-26T10:04:47.966Z,11.40
2017-12-26T10:07:16.278Z,10.60
2017-12-26T10:09:44.606Z,10.00
2017-12-26T10:12:12.956Z,11.30
2017-12-26T10:14:40.456Z,8.60
2017-12-26T10:17:08.866Z,11.10
2017-12-26T10:19:38.919Z,10.63
2017-12-26T10:22:07.408Z,8.83
2017-12-26T10:24:35.708Z,9.17
2017-12-26T10:27:04.177Z,10.27
2017-12-26T10:29:32.492Z,7.90
2017-12-26T10:32:00.266Z,7.33
2017-12-26T10:34:28.370Z,7.03
2017-12-26T10:36:56.370Z,10.73
2017-12-26T10:39:23.934Z,8.33
2017-12-26T10:41:51.889Z,5.60
2017-12-26T10:44:20.201Z,8.30
2017-12-26T10:46:48.527Z,4.87
2017-12-26T10:49:16.826Z,5.30
2017-12-26T10:51:45.116Z,3.97
2017-12-26T10:54:13.882Z,3.57
2017-12-26T10:56:43.122Z,3.57
2017-12-26T10:59:10.673Z,2.57
2017-12-26T11:01:38.594Z,3.10
2017-12-26T11:04:06.907Z,3.07
2017-12-26T11:06:36.083Z,2.10
2017-12-26T11:09:03.635Z,2.50
2017-12-26T11:11:32.374Z,2.80
2017-12-26T11:14:01.002Z,2.33
2017-12-26T11:16:29.654Z,1.73
2017-12-26T11:18:58.117Z,1.70
2017-12-26T11:21:26.414Z,1.43
2017-12-26T11:23:53.957Z,1.70
2017-12-26T11:26:22.299Z,1.70
2017-12-26T11:28:52.999Z,1.53
2017-12-26T11:31:20.519Z,1.43
2017-12-26T11:33:48.525Z,1.20
2017-12-26T11:36:18.195Z,3.43
2017-12-26T11:38:46.773Z,4.23
2017-12-26T11:41:15.065Z,5.10
2017-12-26T11:43:43.684Z,5.40
2017-12-26T11:46:11.604Z,2.10
2017-12-26T11:48:39.915Z,1.20
2017-12-26T11:51:08.201Z,3.63
2017-12-26T11:53:36.786Z,1.60
2017-12-26T11:56:05.081Z,6.93
2017-12-26T11:58:33.394Z,0.80
2017-12-26T12:01:02.417Z,2.63
2017-12-26T12:03:32.053Z,0.87
2017-12-26T12:05:59.709Z,1.27
2017-12-26T12:08:28.074Z,1.10
2017-12-26T12:10:56.366Z,1.07
2017-12-26T12:13:24.914Z,1.30
2017-12-26T12:15:53.201Z,0.90
2017-12-26T12:18:21.610Z,1.10
2017-12-26T12:20:50.157Z,1.00
2017-12-26T12:23:18.175Z,1.43
2017-12-26T12:25:46.490Z,1.23
2017-12-26T12:28:14.791Z,1.17
2017-12-26T12:30:43.090Z,1.03
2017-12-26T12:33:11.477Z,0.90
2017-12-26T12:35:39.814Z,0.90
2017-12-26T12:38:08.111Z,1.40
2017-12-26T12:40:35.666Z,11.73
2017-12-26T12:43:03.868Z,0.73
2017-12-26T12:45:32.717Z,2.97
2017-12-26T12:48:00.235Z,2.40
2017-12-26T12:50:28.566Z,0.80
2017-12-26T12:52:56.864Z,0.80
2017-12-26T12:55:25.174Z,1.67
2017-12-26T12:57:53.468Z,0.60
2017-12-26T13:00:21.807Z,0.90
2017-12-26T13:02:50.088Z,3.07
2017-12-26T13:05:18.812Z,22.20
2017-12-26T13:07:46.742Z,2.90
2017-12-26T13:10:16.000Z,4.47
2017-12-26T13:12:43.514Z,2.50
2017-12-26T13:15:11.892Z,1.07
2017-12-26T13:17:40.284Z,1.40
2017-12-26T13:20:08.606Z,0.70
2017-12-26T13:22:36.901Z,0.60
2017-12-26T13:25:05.604Z,0.80
2017-12-26T13:27:34.047Z,0.70
2017-12-26T13:30:03.929Z,0.80
2017-12-26T13:32:32.655Z,1.23
2017-12-26T13:35:03.252Z,1.53
2017-12-26T13:37:32.039Z,0.97
2017-12-26T13:40:00.389Z,0.70
2017-12-26T13:42:27.924Z,1.00
2017-12-26T13:44:56.203Z,0.77
2017-12-26T13:47:24.538Z,1.23
2017-12-26T13:49:52.055Z,0.70
2017-12-26T13:52:20.057Z,0.90
2017-12-26T13:54:48.868Z,0.70
2017-12-26T13:57:16.799Z,0.80
2017-12-26T13:59:45.081Z,2.90
2017-12-26T14:02:13.400Z,0.70
2017-12-26T14:04:41.672Z,1.03
2017-12-26T14:07:10.861Z,1.00
2017-12-26T14:09:38.433Z,1.20
2017-12-26T14:12:06.734Z,0.80
2017-12-26T14:14:35.929Z,0.80
2017-12-26T14:17:04.419Z,1.10
2017-12-26T14:19:31.950Z,0.80
2017-12-26T14:21:59.893Z,1.10
2017-12-26T14:24:28.165Z,0.70
2017-12-26T14:26:55.732Z,1.20
2017-12-26T14:29:23.639Z,1.47
2017-12-26T14:31:52.064Z,11.97
2017-12-26T14:34:20.404Z,1.83
2017-12-26T14:36:48.709Z,0.80
2017-12-26T14:39:16.985Z,0.90
2017-12-26T14:41:45.305Z,0.90
2017-12-26T14:44:13.581Z,0.80
2017-12-26T14:46:42.601Z,0.90
2017-12-26T14:49:11.827Z,1.37
2017-12-26T14:51:40.158Z,1.10
2017-12-26T14:54:09.985Z,1.50
2017-12-26T14:56:38.296Z,1.90
2017-12-26T14:59:07.410Z,1.30
2017-12-26T15:01:35.485Z,2.27
2017-12-26T15:04:03.008Z,2.70
2017-12-26T15:06:32.040Z,1.33
2017-12-26T15:09:00.334Z,3.70
2017-12-26T15:11:29.220Z,1.90
2017-12-26T15:13:57.179Z,4.13
2017-12-26T15:16:25.632Z,2.07
2017-12-26T15:18:53.922Z,1.40
2017-12-26T15:21:21.600Z,1.90
2017-12-26T15:23:49.898Z,3.30
2017-12-26T15:26:18.435Z,1.00
2017-12-26T15:28:46.747Z,1.50
2017-12-26T15:31:16.354Z,1.10
2017-12-26T15:33:47.009Z,1.23
2017-12-26T15:36:14.538Z,1.00
2017-12-26T15:38:44.341Z,1.23
2017-12-26T15:41:12.621Z,0.90
2017-12-26T15:43:40.957Z,1.10
2017-12-26T15:46:09.474Z,1.30
2017-12-26T15:48:37.421Z,1.83
2017-12-26T15:51:05.702Z,4.60
2017-12-26T15:53:34.001Z,1.13
2017-12-26T15:56:01.509Z,3.37
2017-12-26T15:58:29.860Z,1.73
2017-12-26T16:00:57.772Z,1.67
2017-12-26T16:03:26.632Z,1.57
2017-12-26T16:05:54.537Z,1.23
2017-12-26T16:08:22.837Z,0.83
2017-12-26T16:10:51.117Z,1.27
2017-12-26T16:13:19.409Z,1.00
2017-12-26T16:15:47.686Z,0.90
2017-12-26T16:18:15.989Z,1.03
2017-12-26T16:20:44.275Z,1.77
2017-12-26T16:23:11.806Z,1.40
2017-12-26T16:25:40.469Z,1.40
2017-12-26T16:28:07.998Z,5.03
2017-12-26T16:30:36.297Z,1.33
2017-12-26T16:33:04.590Z,1.63
2017-12-26T16:35:32.121Z,1.23
2017-12-26T16:38:00.060Z,1.80
2017-12-26T16:40:28.364Z,1.37
2017-12-26T16:42:56.845Z,2.30
2017-12-26T16:45:26.281Z,1.03
2017-12-26T16:47:53.793Z,1.40
2017-12-26T16:50:21.756Z,1.17
2017-12-26T16:52:50.792Z,1.30
2017-12-26T16:55:18.318Z,1.13
2017-12-26T16:57:46.771Z,2.10
2017-12-26T17:00:15.085Z,1.00
2017-12-26T17:02:43.532Z,1.77
2017-12-26T17:05:11.833Z,1.63
2017-12-26T17:07:40.191Z,1.50
2017-12-26T17:10:08.501Z,2.40
2017-12-26T17:12:37.520Z,1.40
2017-12-26T17:15:05.128Z,1.80
2017-12-26T17:17:33.451Z,2.10
2017-12-26T17:20:01.805Z,1.40
2017-12-26T17:22:30.346Z,1.50
2017-12-26T17:24:58.909Z,1.53
2017-12-26T17:27:27.803Z,1.40
2017-12-26T17:29:55.381Z,2.03
2017-12-26T17:32:23.703Z,1.67
2017-12-26T17:34:52.041Z,1.70
2017-12-26T17:37:20.339Z,3.70
2017-12-26T17:39:48.644Z,2.73
2017-12-26T17:42:16.929Z,5.43
2017-12-26T17:44:45.218Z,3.50
2017-12-26T17:47:14.315Z,4.47
2017-12-26T17:49:41.917Z,3.97
2017-12-26T17:52:10.213Z,11.43
2017-12-26T17:54:38.563Z,4.87
2017-12-26T17:57:06.068Z,7.50
2017-12-26T17:59:33.973Z,6.93
2017-12-26T18:02:02.270Z,9.80
2017-12-26T18:04:30.650Z,17.30
2017-12-26T18:06:58.994Z,19.13
2017-12-26T18:09:28.013Z,27.67
2017-12-26T18:11:55.562Z,18.37
2017-12-26T18:14:23.128Z,23.77
2017-12-26T18:16:51.075Z,20.77
2017-12-26T18:19:19.348Z,29.97
2017-12-26T18:21:48.439Z,31.53
2017-12-26T18:24:16.007Z,42.27
2017-12-26T18:26:44.354Z,52.43
2017-12-26T18:29:12.678Z,45.77
2017-12-26T18:31:40.982Z,41.33
2017-12-26T18:34:09.404Z,48.87
2017-12-26T18:36:37.752Z,29.00
2017-12-26T18:39:06.081Z,16.77
2017-12-26T18:41:34.375Z,12.60
2017-12-26T18:44:02.663Z,25.27
2017-12-26T18:46:30.971Z,37.33
2017-12-26T18:48:59.281Z,21.30
2017-12-26T18:51:28.360Z,36.67
2017-12-26T18:53:56.312Z,68.97
2017-12-26T18:56:24.666Z,57.80
2017-12-26T18:58:53.128Z,28.63
2017-12-26T19:01:21.104Z,42.33
2017-12-26T19:03:48.655Z,26.57
2017-12-26T19:06:16.628Z,22.27
2017-12-26T19:08:44.915Z,26.40
2017-12-26T19:11:13.214Z,29.60
2017-12-26T19:13:41.542Z,20.27
2017-12-26T19:16:09.836Z,16.80
2017-12-26T19:18:39.936Z,13.80
2017-12-26T19:21:07.910Z,16.87
2017-12-26T19:23:36.467Z,15.57
2017-12-26T19:26:04.794Z,16.77
2017-12-26T19:28:33.107Z,16.70
2017-12-26T19:31:01.438Z,18.57
2017-12-26T19:33:30.532Z,23.30
2017-12-26T19:35:58.155Z,18.33
2017-12-26T19:38:26.507Z,18.20
2017-12-26T19:40:54.861Z,18.33
2017-12-26T19:43:23.264Z,22.17
2017-12-26T19:45:51.272Z,22.13
2017-12-26T19:48:19.758Z,13.80
2017-12-26T19:50:48.607Z,14.73
2017-12-26T19:53:17.520Z,21.43
2017-12-26T19:55:45.661Z,16.37
2017-12-26T19:58:13.257Z,8.87
2017-12-26T20:00:40.813Z,10.60
2017-12-26T20:03:08.442Z,11.43
2017-12-26T20:05:35.972Z,6.70
2017-12-26T20:08:04.276Z,6.60
2017-12-26T20:10:31.831Z,13.30
2017-12-26T20:12:59.484Z,26.63
2017-12-26T20:15:27.050Z,16.20
2017-12-26T20:17:54.626Z,11.30
2017-12-26T20:20:22.188Z,12.13
2017-12-26T20:22:50.665Z,11.27
2017-12-26T20:25:18.236Z,11.37
2017-12-26T20:27:45.809Z,12.07
2017-12-26T20:30:14.094Z,10.07
2017-12-26T20:32:41.679Z,8.73
2017-12-26T20:35:09.236Z,7.10
2017-12-26T20:37:36.848Z,4.33
2017-12-26T20:40:04.424Z,5.60
2017-12-26T20:42:31.953Z,4.53
2017-12-26T20:44:59.543Z,6.10
2017-12-26T20:47:27.872Z,10.93
2017-12-26T20:49:55.455Z,12.80
2017-12-26T20:52:23.012Z,9.03
2017-12-26T20:54:50.606Z,13.20
2017-12-26T20:57:18.173Z,7.73
2017-12-26T20:59:45.741Z,8.70
2017-12-26T21:02:13.293Z,10.70
2017-12-26T21:04:41.630Z,7.47
2017-12-26T21:07:09.277Z,7.27
2017-12-26T21:09:36.859Z,8.27
2017-12-26T21:12:04.463Z,9.70
2017-12-26T21:14:32.048Z,5.03
2017-12-26T21:17:00.416Z,12.93
2017-12-26T21:19:27.990Z,8.70
2017-12-26T21:21:56.324Z,8.57
2017-12-26T21:24:23.928Z,10.80
2017-12-26T21:26:51.478Z,11.77
2017-12-26T21:29:19.067Z,11.03
2017-12-26T21:31:47.949Z,8.50
2017-12-26T21:34:15.927Z,9.07
2017-12-26T21:36:43.503Z,10.63
2017-12-26T21:39:11.634Z,9.23
2017-12-26T21:41:39.235Z,12.37
2017-12-26T21:44:06.826Z,11.70
2017-12-26T21:46:35.170Z,11.37
2017-12-26T21:49:02.752Z,10.30
2017-12-26T21:51:31.259Z,9.23
2017-12-26T21:53:59.591Z,12.37
2017-12-26T21:56:27.186Z,13.57
2017-12-26T21:58:54.753Z,9.30
2017-12-26T22:01:22.347Z,14.00
2017-12-26T22:03:50.848Z,20.97
2017-12-26T22:06:18.432Z,16.60
2017-12-26T22:08:46.008Z,9.43
2017-12-26T22:11:14.524Z,26.40
2017-12-26T22:13:42.487Z,23.27
2017-12-26T22:16:10.082Z,22.30
2017-12-26T22:18:37.640Z,13.60
2017-12-26T22:21:06.062Z,17.07
2017-12-26T22:23:34.461Z,10.43
2017-12-26T22:26:02.818Z,6.97
2017-12-26T22:28:30.387Z,9.90
2017-12-26T22:30:58.743Z,8.63
2017-12-26T22:33:26.310Z,13.30
2017-12-26T22:35:54.280Z,12.20
2017-12-26T22:38:22.642Z,8.07
2017-12-26T22:40:50.249Z,7.20
2017-12-26T22:43:19.793Z,9.07
2017-12-26T22:45:47.376Z,10.80
2017-12-26T22:48:14.947Z,10.30
2017-12-26T22:50:43.259Z,12.20
2017-12-26T22:53:10.823Z,10.93
2017-12-26T22:55:39.198Z,15.57
2017-12-26T22:58:06.756Z,9.40
2017-12-26T23:00:34.360Z,9.27
2017-12-26T23:03:01.939Z,11.90
2017-12-26T23:05:31.132Z,11.60
2017-12-26T23:07:58.734Z,9.10
2017-12-26T23:10:27.444Z,7.60
2017-12-26T23:12:55.770Z,7.13
2017-12-26T23:15:30.000Z,8.40
2017-12-26T23:18:04.059Z,7.00
2017-12-26T23:20:37.332Z,8.00
2017-12-26T23:23:11.027Z,9.93
2017-12-26T23:25:44.346Z,7.60
2017-12-26T23:28:17.692Z,11.53
2017-12-26T23:30:50.964Z,8.13
2017-12-26T23:33:24.251Z,10.87
2017-12-26T23:35:57.822Z,8.07
2017-12-26T23:38:32.924Z,8.50
2017-12-26T23:41:06.134Z,8.80
2017-12-26T23:43:39.375Z,10.03
2017-12-26T23:46:14.237Z,7.33
2017-12-26T23:48:47.401Z,7.53
2017-12-26T23:51:20.611Z,9.70
2017-12-26T23:53:54.292Z,7.90
2017-12-26T23:56:27.565Z,9.60
2017-12-26T23:59:01.687Z,11.90
